sensor_id;sensor_type;location;lat;lon;timestamp;pressure;altitude;pressure_sealevel;temperature;humidity
56241;BME280;42155;53.096;23.226;2023-09-19T00:01:06;99495.44;;;18.65;76.02
56241;BME280;42155;53.096;23.226;2023-09-19T00:03:07;99494.41;;;18.66;76.11
56241;BME280;42155;53.096;23.226;2023-09-19T00:05:07;99501.00;;;18.63;76.00
56241;BME280;42155;53.096;23.226;2023-09-19T00:07:08;99482.66;;;18.52;76.04
56241;BME280;42155;53.096;23.226;2023-09-19T00:09:08;99488.31;;;18.57;76.33
56241;BME280;42155;53.096;23.226;2023-09-19T00:11:08;99461.63;;;18.41;76.22
56241;BME280;42155;53.096;23.226;2023-09-19T00:13:09;99494.34;;;18.59;76.52
56241;BME280;42155;53.096;23.226;2023-09-19T00:15:10;99482.03;;;18.50;76.42
56241;BME280;42155;53.096;23.226;2023-09-19T00:17:10;99480.34;;;18.49;76.29
56241;BME280;42155;53.096;23.226;2023-09-19T00:19:10;99488.03;;;18.52;76.66
56241;BME280;42155;53.096;23.226;2023-09-19T00:21:11;99488.41;;;18.49;76.70
56241;BME280;42155;53.096;23.226;2023-09-19T00:23:11;99488.41;;;18.49;76.49
56241;BME280;42155;53.096;23.226;2023-09-19T00:25:11;99466.34;;;18.39;76.89
56241;BME280;42155;53.096;23.226;2023-09-19T00:27:12;99475.97;;;18.48;76.85
56241;BME280;42155;53.096;23.226;2023-09-19T00:29:12;99478.03;;;18.46;76.54
56241;BME280;42155;53.096;23.226;2023-09-19T00:31:12;99470.06;;;18.38;76.76
56241;BME280;42155;53.096;23.226;2023-09-19T00:33:13;99472.38;;;18.41;76.68
56241;BME280;42155;53.096;23.226;2023-09-19T00:35:16;99470.16;;;18.44;76.90
56241;BME280;42155;53.096;23.226;2023-09-19T00:37:16;99469.69;;;18.41;76.50
56241;BME280;42155;53.096;23.226;2023-09-19T00:39:16;99466.34;;;18.39;76.98
56241;BME280;42155;53.096;23.226;2023-09-19T00:41:17;99467.38;;;18.38;76.81
56241;BME280;42155;53.096;23.226;2023-09-19T00:43:17;99464.41;;;18.32;76.97
56241;BME280;42155;53.096;23.226;2023-09-19T00:45:17;99458.00;;;18.33;77.11
56241;BME280;42155;53.096;23.226;2023-09-19T00:47:18;99442.53;;;18.21;77.24
56241;BME280;42155;53.096;23.226;2023-09-19T00:49:18;99433.66;;;18.20;77.52
56241;BME280;42155;53.096;23.226;2023-09-19T00:51:20;99435.03;;;18.16;77.42
56241;BME280;42155;53.096;23.226;2023-09-19T00:53:23;99456.72;;;18.29;77.39
56241;BME280;42155;53.096;23.226;2023-09-19T00:55:25;99444.31;;;18.28;77.60
56241;BME280;42155;53.096;23.226;2023-09-19T00:57:25;99447.00;;;18.28;77.79
56241;BME280;42155;53.096;23.226;2023-09-19T00:59:26;99440.59;;;18.29;77.86
56241;BME280;42155;53.096;23.226;2023-09-19T01:01:27;99438.47;;;18.25;77.60
56241;BME280;42155;53.096;23.226;2023-09-19T01:03:27;99430.06;;;18.28;77.67
56241;BME280;42155;53.096;23.226;2023-09-19T01:05:28;99409.88;;;18.17;77.57
56241;BME280;42155;53.096;23.226;2023-09-19T01:07:30;99435.63;;;18.26;77.88
56241;BME280;42155;53.096;23.226;2023-09-19T01:09:30;99431.91;;;18.27;77.67
56241;BME280;42155;53.096;23.226;2023-09-19T01:11:37;99423.66;;;18.29;77.83
56241;BME280;42155;53.096;23.226;2023-09-19T01:16:19;99386.44;;;18.11;77.96
56241;BME280;42155;53.096;23.226;2023-09-19T01:21:22;99415.78;;;18.27;77.85
56241;BME280;42155;53.096;23.226;2023-09-19T01:23:26;99412.06;;;18.28;77.68
56241;BME280;42155;53.096;23.226;2023-09-19T01:25:52;99401.34;;;18.28;77.90
56241;BME280;42155;53.096;23.226;2023-09-19T01:30:17;99403.38;;;18.26;77.92
56241;BME280;42155;53.096;23.226;2023-09-19T01:32:21;99391.34;;;18.22;78.04
56241;BME280;42155;53.096;23.226;2023-09-19T01:34:22;99401.53;;;18.27;77.85
56241;BME280;42155;53.096;23.226;2023-09-19T01:36:22;99382.09;;;18.10;77.67
56241;BME280;42155;53.096;23.226;2023-09-19T01:38:22;99390.69;;;18.20;77.92
56241;BME280;42155;53.096;23.226;2023-09-19T01:40:23;99401.13;;;18.30;77.79
56241;BME280;42155;53.096;23.226;2023-09-19T01:46:48;99391.06;;;18.32;77.95
56241;BME280;42155;53.096;23.226;2023-09-19T01:49:06;99379.94;;;18.35;77.63
56241;BME280;42155;53.096;23.226;2023-09-19T01:51:14;99382.81;;;18.33;77.84
56241;BME280;42155;53.096;23.226;2023-09-19T01:53:28;99369.47;;;18.25;77.92
56241;BME280;42155;53.096;23.226;2023-09-19T01:55:36;99378.81;;;18.29;78.00
56241;BME280;42155;53.096;23.226;2023-09-19T02:00:05;99387.53;;;18.31;77.67
56241;BME280;42155;53.096;23.226;2023-09-19T02:02:06;99375.22;;;18.22;77.62
56241;BME280;42155;53.096;23.226;2023-09-19T02:04:07;99352.81;;;18.15;77.90
56241;BME280;42155;53.096;23.226;2023-09-19T02:06:07;99354.78;;;18.21;77.72
56241;BME280;42155;53.096;23.226;2023-09-19T02:08:08;99385.69;;;18.32;77.56
56241;BME280;42155;53.096;23.226;2023-09-19T02:10:08;99388.72;;;18.29;77.62
56241;BME280;42155;53.096;23.226;2023-09-19T02:12:09;99383.56;;;18.27;77.85
56241;BME280;42155;53.096;23.226;2023-09-19T02:14:09;99388.94;;;18.27;77.99
56241;BME280;42155;53.096;23.226;2023-09-19T02:16:10;99373.94;;;18.18;78.27
56241;BME280;42155;53.096;23.226;2023-09-19T02:18:11;99385.59;;;18.25;77.78
56241;BME280;42155;53.096;23.226;2023-09-19T02:20:12;99383.91;;;18.24;77.73
56241;BME280;42155;53.096;23.226;2023-09-19T02:22:12;99373.94;;;18.18;77.80
56241;BME280;42155;53.096;23.226;2023-09-19T02:24:12;99366.91;;;18.17;77.88
56241;BME280;42155;53.096;23.226;2023-09-19T02:26:13;99379.38;;;18.25;77.86
56241;BME280;42155;53.096;23.226;2023-09-19T02:28:13;99372.53;;;18.22;77.73
56241;BME280;42155;53.096;23.226;2023-09-19T02:30:14;99369.84;;;18.22;78.00
56241;BME280;42155;53.096;23.226;2023-09-19T02:32:14;99369.19;;;18.20;78.18
56241;BME280;42155;53.096;23.226;2023-09-19T02:34:14;99333.97;;;17.94;77.87
56241;BME280;42155;53.096;23.226;2023-09-19T02:36:15;99366.72;;;18.19;77.88
56241;BME280;42155;53.096;23.226;2023-09-19T02:38:15;99359.41;;;18.13;78.09
56241;BME280;42155;53.096;23.226;2023-09-19T02:40:16;99362.91;;;18.13;78.34
56241;BME280;42155;53.096;23.226;2023-09-19T02:42:16;99354.88;;;18.13;78.05
56241;BME280;42155;53.096;23.226;2023-09-19T02:44:16;99361.91;;;18.14;78.04
56241;BME280;42155;53.096;23.226;2023-09-19T02:46:17;99331.16;;;18.02;78.24
56241;BME280;42155;53.096;23.226;2023-09-19T02:48:17;99356.72;;;18.13;78.30
56241;BME280;42155;53.096;23.226;2023-09-19T02:50:17;99346.97;;;18.12;78.07
56241;BME280;42155;53.096;23.226;2023-09-19T02:52:18;99338.66;;;18.06;77.97
56241;BME280;42155;53.096;23.226;2023-09-19T02:54:18;99339.13;;;18.10;77.98
56241;BME280;42155;53.096;23.226;2023-09-19T02:56:18;99343.84;;;18.08;78.20
56241;BME280;42155;53.096;23.226;2023-09-19T02:58:19;99335.13;;;18.06;77.98
56241;BME280;42155;53.096;23.226;2023-09-19T03:00:20;99334.50;;;18.04;78.21
56241;BME280;42155;53.096;23.226;2023-09-19T03:02:20;99322.09;;;18.03;78.16
56241;BME280;42155;53.096;23.226;2023-09-19T03:04:21;99322.09;;;18.03;78.25
56241;BME280;42155;53.096;23.226;2023-09-19T03:06:21;99329.50;;;18.01;78.45
56241;BME280;42155;53.096;23.226;2023-09-19T03:08:22;99326.19;;;17.99;78.03
56241;BME280;42155;53.096;23.226;2023-09-19T03:10:23;99326.91;;;17.93;78.27
56241;BME280;42155;53.096;23.226;2023-09-19T03:12:23;99326.91;;;17.93;78.64
56241;BME280;42155;53.096;23.226;2023-09-19T03:14:23;99327.56;;;17.95;78.32
56241;BME280;42155;53.096;23.226;2023-09-19T03:16:24;99323.59;;;17.91;78.80
56241;BME280;42155;53.096;23.226;2023-09-19T03:18:24;99325.63;;;17.89;78.96
56241;BME280;42155;53.096;23.226;2023-09-19T03:20:25;99310.91;;;17.85;78.61
56241;BME280;42155;53.096;23.226;2023-09-19T03:22:26;99318.59;;;17.88;78.61
56241;BME280;42155;53.096;23.226;2023-09-19T03:24:27;99304.06;;;17.82;78.93
56241;BME280;42155;53.096;23.226;2023-09-19T03:26:27;99301.94;;;17.77;78.99
56241;BME280;42155;53.096;23.226;2023-09-19T03:28:27;99316.72;;;17.88;78.86
56241;BME280;42155;53.096;23.226;2023-09-19T03:30:28;99309.91;;;17.86;79.00
56241;BME280;42155;53.096;23.226;2023-09-19T03:32:28;99312.78;;;17.84;79.14
56241;BME280;42155;53.096;23.226;2023-09-19T03:34:28;99310.72;;;17.86;79.13
56241;BME280;42155;53.096;23.226;2023-09-19T03:36:29;99303.69;;;17.85;78.99
56241;BME280;42155;53.096;23.226;2023-09-19T03:38:30;99300.34;;;17.83;78.98
56241;BME280;42155;53.096;23.226;2023-09-19T03:40:30;99302.88;;;17.85;79.10
56241;BME280;42155;53.096;23.226;2023-09-19T03:42:31;99294.81;;;17.85;78.70
56241;BME280;42155;53.096;23.226;2023-09-19T03:44:31;99277.47;;;17.72;78.81
56241;BME280;42155;53.096;23.226;2023-09-19T03:46:32;99288.97;;;17.81;79.06
56241;BME280;42155;53.096;23.226;2023-09-19T03:48:32;99283.41;;;17.83;79.12
56241;BME280;42155;53.096;23.226;2023-09-19T03:50:32;99296.00;;;17.82;78.86
56241;BME280;42155;53.096;23.226;2023-09-19T03:52:33;99283.81;;;17.79;79.06
56241;BME280;42155;53.096;23.226;2023-09-19T03:54:33;99281.47;;;17.76;78.94
56241;BME280;42155;53.096;23.226;2023-09-19T03:56:33;99243.31;;;17.51;78.76
56241;BME280;42155;53.096;23.226;2023-09-19T03:58:34;99293.31;;;17.82;78.93
56241;BME280;42155;53.096;23.226;2023-09-19T04:00:34;99283.81;;;17.79;78.85
56241;BME280;42155;53.096;23.226;2023-09-19T04:02:34;99262.50;;;17.63;79.11
56241;BME280;42155;53.096;23.226;2023-09-19T04:04:35;99283.34;;;17.76;78.84
56241;BME280;42155;53.096;23.226;2023-09-19T04:06:35;99282.31;;;17.77;79.06
56241;BME280;42155;53.096;23.226;2023-09-19T04:08:36;99268.44;;;17.73;78.86
56241;BME280;42155;53.096;23.226;2023-09-19T04:10:36;99276.13;;;17.76;79.10
56241;BME280;42155;53.096;23.226;2023-09-19T04:12:37;99293.69;;;17.79;79.03
56241;BME280;42155;53.096;23.226;2023-09-19T04:14:37;99250.81;;;17.56;78.93
56241;BME280;42155;53.096;23.226;2023-09-19T04:16:38;99256.28;;;17.63;79.22
56241;BME280;42155;53.096;23.226;2023-09-19T04:18:38;99275.44;;;17.74;78.86
56241;BME280;42155;53.096;23.226;2023-09-19T04:20:39;99259.06;;;17.69;78.83
56241;BME280;42155;53.096;23.226;2023-09-19T04:22:39;99236.78;;;17.54;79.33
56241;BME280;42155;53.096;23.226;2023-09-19T04:24:39;99273.16;;;17.86;78.87
56241;BME280;42155;53.096;23.226;2023-09-19T04:26:40;99268.97;;;17.84;78.91
56241;BME280;42155;53.096;23.226;2023-09-19T04:28:40;99260.91;;;17.84;79.02
56241;BME280;42155;53.096;23.226;2023-09-19T04:30:40;99265.16;;;17.93;78.79
56241;BME280;42155;53.096;23.226;2023-09-19T04:32:41;99257.41;;;17.83;78.46
56241;BME280;42155;53.096;23.226;2023-09-19T04:34:41;99265.81;;;17.95;78.40
56241;BME280;42155;53.096;23.226;2023-09-19T04:36:42;99263.03;;;18.03;78.44
56241;BME280;42155;53.096;23.226;2023-09-19T04:38:42;99268.00;;;18.06;78.15
56241;BME280;42155;53.096;23.226;2023-09-19T04:40:42;99258.84;;;18.00;78.07
56241;BME280;42155;53.096;23.226;2023-09-19T04:42:43;99253.69;;;17.99;78.21
56241;BME280;42155;53.096;23.226;2023-09-19T04:44:44;99270.38;;;18.16;78.07
56241;BME280;42155;53.096;23.226;2023-09-19T04:46:44;99251.16;;;18.12;77.53
56241;BME280;42155;53.096;23.226;2023-09-19T04:48:44;99254.53;;;18.21;77.69
56241;BME280;42155;53.096;23.226;2023-09-19T04:50:45;99250.91;;;18.28;77.71
56241;BME280;42155;53.096;23.226;2023-09-19T04:52:45;99262.94;;;18.32;77.50
56241;BME280;42155;53.096;23.226;2023-09-19T04:54:45;99262.16;;;18.39;77.20
56241;BME280;42155;53.096;23.226;2023-09-19T04:56:46;99251.06;;;18.42;77.35
56241;BME280;42155;53.096;23.226;2023-09-19T04:58:46;99256.69;;;18.47;76.85
56241;BME280;42155;53.096;23.226;2023-09-19T05:00:46;99243.69;;;18.50;76.88
56241;BME280;42155;53.096;23.226;2023-09-19T05:02:49;99248.38;;;18.63;76.60
56241;BME280;42155;53.096;23.226;2023-09-19T05:04:49;99250.94;;;18.71;75.95
56241;BME280;42155;53.096;23.226;2023-09-19T05:06:50;99247.41;;;18.92;75.76
56241;BME280;42155;53.096;23.226;2023-09-19T05:08:50;99245.09;;;19.17;74.67
56241;BME280;42155;53.096;23.226;2023-09-19T05:10:50;99242.00;;;19.48;74.04
56241;BME280;42155;53.096;23.226;2023-09-19T05:12:54;99237.47;;;19.90;72.42
56241;BME280;42155;53.096;23.226;2023-09-19T05:14:54;99237.81;;;20.42;71.03
56241;BME280;42155;53.096;23.226;2023-09-19T05:16:54;99226.91;;;20.90;69.57
56241;BME280;42155;53.096;23.226;2023-09-19T05:18:55;99224.13;;;21.43;68.25
56241;BME280;42155;53.096;23.226;2023-09-19T05:20:55;99228.59;;;21.82;66.98
56241;BME280;42155;53.096;23.226;2023-09-19T05:23:02;99224.28;;;22.19;66.17
56241;BME280;42155;53.096;23.226;2023-09-19T05:25:03;99217.47;;;22.42;64.66
56241;BME280;42155;53.096;23.226;2023-09-19T05:27:04;99209.34;;;22.42;64.36
56241;BME280;42155;53.096;23.226;2023-09-19T05:29:04;99208.59;;;22.34;64.77
56241;BME280;42155;53.096;23.226;2023-09-19T05:31:04;99205.28;;;22.32;64.77
56241;BME280;42155;53.096;23.226;2023-09-19T05:33:05;99208.91;;;22.51;63.88
56241;BME280;42155;53.096;23.226;2023-09-19T05:35:06;99206.03;;;22.71;63.73
56241;BME280;42155;53.096;23.226;2023-09-19T05:37:06;99192.91;;;23.00;62.92
56241;BME280;42155;53.096;23.226;2023-09-19T05:39:06;99189.25;;;23.31;62.12
56241;BME280;42155;53.096;23.226;2023-09-19T05:41:07;99188.13;;;23.57;60.92
56241;BME280;42155;53.096;23.226;2023-09-19T05:43:07;99182.88;;;23.62;60.42
56241;BME280;42155;53.096;23.226;2023-09-19T05:45:08;99169.78;;;23.59;60.55
56241;BME280;42155;53.096;23.226;2023-09-19T05:47:08;99162.22;;;23.61;60.50
56241;BME280;42155;53.096;23.226;2023-09-19T05:49:09;99173.53;;;23.95;60.26
56241;BME280;42155;53.096;23.226;2023-09-19T05:51:09;99175.97;;;24.26;59.12
56241;BME280;42155;53.096;23.226;2023-09-19T05:53:10;99173.72;;;24.65;58.35
56241;BME280;42155;53.096;23.226;2023-09-19T05:55:10;99164.75;;;25.00;57.05
56241;BME280;42155;53.096;23.226;2023-09-19T05:57:10;99153.38;;;25.50;55.59
56241;BME280;42155;53.096;23.226;2023-09-19T05:59:10;99150.94;;;25.88;54.32
56241;BME280;42155;53.096;23.226;2023-09-19T06:01:11;99149.22;;;25.99;54.52
56241;BME280;42155;53.096;23.226;2023-09-19T06:03:11;99135.69;;;25.87;54.09
56241;BME280;42155;53.096;23.226;2023-09-19T06:05:11;99148.69;;;26.14;53.48
56241;BME280;42155;53.096;23.226;2023-09-19T06:07:12;99162.44;;;26.86;51.96
56241;BME280;42155;53.096;23.226;2023-09-19T06:09:12;99158.34;;;27.45;51.31
56241;BME280;42155;53.096;23.226;2023-09-19T06:11:12;99158.41;;;27.50;50.60
56241;BME280;42155;53.096;23.226;2023-09-19T06:13:13;99153.41;;;27.03;51.44
56241;BME280;42155;53.096;23.226;2023-09-19T06:15:14;99151.88;;;26.56;52.48
56241;BME280;42155;53.096;23.226;2023-09-19T06:17:14;99150.31;;;26.15;52.85
56241;BME280;42155;53.096;23.226;2023-09-19T06:19:14;99157.31;;;25.82;53.40
56241;BME280;42155;53.096;23.226;2023-09-19T06:21:15;99168.44;;;25.69;54.58
56241;BME280;42155;53.096;23.226;2023-09-19T06:23:15;99160.13;;;25.87;53.44
56241;BME280;42155;53.096;23.226;2023-09-19T06:25:16;99159.91;;;26.34;52.76
56241;BME280;42155;53.096;23.226;2023-09-19T06:27:16;99163.50;;;26.69;51.89
56241;BME280;42155;53.096;23.226;2023-09-19T06:29:16;99157.63;;;26.94;51.73
56241;BME280;42155;53.096;23.226;2023-09-19T06:31:17;99166.78;;;27.04;51.73
56241;BME280;42155;53.096;23.226;2023-09-19T06:33:17;99162.16;;;27.05;52.16
56241;BME280;42155;53.096;23.226;2023-09-19T06:35:17;99162.13;;;27.22;51.72
56241;BME280;42155;53.096;23.226;2023-09-19T06:37:18;99172.13;;;27.16;52.09
56241;BME280;42155;53.096;23.226;2023-09-19T06:39:18;99165.47;;;26.90;52.41
56241;BME280;42155;53.096;23.226;2023-09-19T06:41:18;99160.44;;;26.65;52.79
56241;BME280;42155;53.096;23.226;2023-09-19T06:43:19;99163.41;;;26.47;53.12
56241;BME280;42155;53.096;23.226;2023-09-19T06:45:19;99162.53;;;26.29;53.61
56241;BME280;42155;53.096;23.226;2023-09-19T06:47:20;99149.16;;;26.11;53.62
56241;BME280;42155;53.096;23.226;2023-09-19T06:49:20;99161.31;;;25.92;53.51
56241;BME280;42155;53.096;23.226;2023-09-19T06:51:20;99158.19;;;25.71;53.89
56241;BME280;42155;53.096;23.226;2023-09-19T06:53:21;99153.59;;;25.60;53.80
56241;BME280;42155;53.096;23.226;2023-09-19T06:55:22;99141.16;;;25.35;54.13
56241;BME280;42155;53.096;23.226;2023-09-19T06:57:22;99162.66;;;25.25;54.55
56241;BME280;42155;53.096;23.226;2023-09-19T06:59:22;99171.00;;;25.00;55.35
56241;BME280;42155;53.096;23.226;2023-09-19T07:01:23;99161.09;;;24.71;56.17
56241;BME280;42155;53.096;23.226;2023-09-19T07:03:23;99176.78;;;24.45;56.79
56241;BME280;42155;53.096;23.226;2023-09-19T07:05:24;99173.72;;;24.23;56.94
56241;BME280;42155;53.096;23.226;2023-09-19T07:07:24;99168.13;;;24.06;57.24
56241;BME280;42155;53.096;23.226;2023-09-19T07:09:25;99176.81;;;23.97;58.35
56241;BME280;42155;53.096;23.226;2023-09-19T07:11:25;99171.69;;;23.88;58.10
56241;BME280;42155;53.096;23.226;2023-09-19T07:13:25;99176.16;;;23.83;58.61
56241;BME280;42155;53.096;23.226;2023-09-19T07:15:26;99179.66;;;23.72;58.89
56241;BME280;42155;53.096;23.226;2023-09-19T07:17:27;99172.72;;;23.57;58.85
56241;BME280;42155;53.096;23.226;2023-09-19T07:19:28;99180.59;;;23.59;58.64
56241;BME280;42155;53.096;23.226;2023-09-19T07:21:28;99176.09;;;23.53;58.84
56241;BME280;42155;53.096;23.226;2023-09-19T07:23:29;99172.19;;;23.49;59.52
56241;BME280;42155;53.096;23.226;2023-09-19T07:25:30;99173.22;;;23.48;59.30
56241;BME280;42155;53.096;23.226;2023-09-19T07:27:30;99166.69;;;23.37;59.25
56241;BME280;42155;53.096;23.226;2023-09-19T07:29:31;99175.34;;;23.46;59.59
56241;BME280;42155;53.096;23.226;2023-09-19T07:31:31;99184.81;;;23.55;60.38
56241;BME280;42155;53.096;23.226;2023-09-19T07:33:32;99182.38;;;23.72;59.87
56241;BME280;42155;53.096;23.226;2023-09-19T07:35:33;99166.91;;;23.91;59.41
56241;BME280;42155;53.096;23.226;2023-09-19T07:37:34;99174.16;;;24.08;58.50
56241;BME280;42155;53.096;23.226;2023-09-19T07:39:34;99156.13;;;24.14;58.42
56241;BME280;42155;53.096;23.226;2023-09-19T07:41:35;99173.94;;;24.52;58.59
56241;BME280;42155;53.096;23.226;2023-09-19T07:43:35;99156.63;;;24.64;57.69
56241;BME280;42155;53.096;23.226;2023-09-19T07:45:36;99169.00;;;24.96;57.18
56241;BME280;42155;53.096;23.226;2023-09-19T07:47:36;99173.25;;;25.03;56.60
56241;BME280;42155;53.096;23.226;2023-09-19T07:49:36;99174.69;;;25.06;55.83
56241;BME280;42155;53.096;23.226;2023-09-19T07:51:37;99155.56;;;25.01;56.25
56241;BME280;42155;53.096;23.226;2023-09-19T07:53:37;99178.13;;;25.25;55.48
56241;BME280;42155;53.096;23.226;2023-09-19T07:55:37;99173.06;;;25.28;55.90
56241;BME280;42155;53.096;23.226;2023-09-19T07:57:38;99150.47;;;25.28;55.30
56241;BME280;42155;53.096;23.226;2023-09-19T07:59:38;99172.16;;;25.51;54.96
56241;BME280;42155;53.096;23.226;2023-09-19T08:01:38;99187.38;;;25.64;54.82
56241;BME280;42155;53.096;23.226;2023-09-19T08:03:39;99171.66;;;25.66;55.00
56241;BME280;42155;53.096;23.226;2023-09-19T08:05:40;99166.22;;;25.66;54.46
56241;BME280;42155;53.096;23.226;2023-09-19T08:07:42;99161.03;;;25.64;54.77
56241;BME280;42155;53.096;23.226;2023-09-19T08:09:43;99161.59;;;25.78;54.10
56241;BME280;42155;53.096;23.226;2023-09-19T08:11:43;99175.50;;;25.94;53.84
56241;BME280;42155;53.096;23.226;2023-09-19T08:13:43;99158.69;;;25.97;53.83
56241;BME280;42155;53.096;23.226;2023-09-19T08:15:44;99165.97;;;26.08;53.50
56241;BME280;42155;53.096;23.226;2023-09-19T08:17:45;99160.53;;;26.08;53.43
56241;BME280;42155;53.096;23.226;2023-09-19T08:19:45;99143.34;;;25.90;53.66
56241;BME280;42155;53.096;23.226;2023-09-19T08:21:47;99157.91;;;26.13;52.99
56241;BME280;42155;53.096;23.226;2023-09-19T08:23:47;99156.19;;;26.24;53.61
56241;BME280;42155;53.096;23.226;2023-09-19T08:25:47;99152.59;;;26.35;53.31
56241;BME280;42155;53.096;23.226;2023-09-19T08:27:48;99158.94;;;26.40;52.50
56241;BME280;42155;53.096;23.226;2023-09-19T08:29:49;99167.66;;;26.42;52.24
56241;BME280;42155;53.096;23.226;2023-09-19T08:31:49;99163.63;;;26.28;52.87
56241;BME280;42155;53.096;23.226;2023-09-19T08:33:50;99167.06;;;26.24;52.61
56241;BME280;42155;53.096;23.226;2023-09-19T08:35:50;99159.06;;;26.17;53.29
56241;BME280;42155;53.096;23.226;2023-09-19T08:37:50;99155.28;;;26.18;52.98
56241;BME280;42155;53.096;23.226;2023-09-19T08:39:51;99156.28;;;26.12;53.22
56241;BME280;42155;53.096;23.226;2023-09-19T08:41:58;99106.53;;;25.71;52.81
56241;BME280;42155;53.096;23.226;2023-09-19T08:43:59;99151.13;;;25.99;53.11
56241;BME280;42155;53.096;23.226;2023-09-19T08:46:20;99128.69;;;25.92;53.73
56241;BME280;42155;53.096;23.226;2023-09-19T08:48:23;99141.91;;;26.00;53.52
56241;BME280;42155;53.096;23.226;2023-09-19T08:50:27;99138.59;;;25.98;52.94
56241;BME280;42155;53.096;23.226;2023-09-19T08:52:32;99144.03;;;25.98;53.73
56241;BME280;42155;53.096;23.226;2023-09-19T08:54:37;99140.91;;;26.06;53.52
56241;BME280;42155;53.096;23.226;2023-09-19T08:56:38;99132.09;;;26.15;53.42
56241;BME280;42155;53.096;23.226;2023-09-19T09:00:50;99130.28;;;26.04;53.27
56241;BME280;42155;53.096;23.226;2023-09-19T09:02:54;99114.88;;;25.93;52.76
56241;BME280;42155;53.096;23.226;2023-09-19T09:04:56;99129.00;;;26.07;53.44
56241;BME280;42155;53.096;23.226;2023-09-19T09:06:58;99131.88;;;26.17;53.24
56241;BME280;42155;53.096;23.226;2023-09-19T09:08:58;99098.88;;;25.97;53.29
56241;BME280;42155;53.096;23.226;2023-09-19T09:10:59;99099.03;;;25.90;52.89
56241;BME280;42155;53.096;23.226;2023-09-19T09:12:59;99133.56;;;26.06;52.82
56241;BME280;42155;53.096;23.226;2023-09-19T09:15:00;99118.16;;;25.95;52.89
56241;BME280;42155;53.096;23.226;2023-09-19T09:17:00;99124.75;;;25.99;52.94
56241;BME280;42155;53.096;23.226;2023-09-19T09:19:01;99131.09;;;26.05;53.21
56241;BME280;42155;53.096;23.226;2023-09-19T09:21:01;99135.81;;;26.09;52.56
56241;BME280;42155;53.096;23.226;2023-09-19T09:23:01;99140.53;;;26.14;53.04
56241;BME280;42155;53.096;23.226;2023-09-19T09:25:02;99132.94;;;26.16;52.27
56241;BME280;42155;53.096;23.226;2023-09-19T09:27:04;99134.00;;;26.15;53.47
56241;BME280;42155;53.096;23.226;2023-09-19T09:29:04;99118.19;;;26.12;52.99
56241;BME280;42155;53.096;23.226;2023-09-19T09:31:05;99109.63;;;26.03;53.35
56241;BME280;42155;53.096;23.226;2023-09-19T09:33:11;99143.50;;;26.12;53.16
56241;BME280;42155;53.096;23.226;2023-09-19T09:35:12;99143.06;;;26.04;53.43
56241;BME280;42155;53.096;23.226;2023-09-19T09:37:16;99137.75;;;25.97;53.24
56241;BME280;42155;53.096;23.226;2023-09-19T09:39:29;99140.25;;;25.99;53.25
56241;BME280;42155;53.096;23.226;2023-09-19T09:41:36;99131.03;;;26.00;53.07
56241;BME280;42155;53.096;23.226;2023-09-19T09:43:38;99137.81;;;26.14;53.01
56241;BME280;42155;53.096;23.226;2023-09-19T09:45:39;99148.94;;;26.29;52.45
56241;BME280;42155;53.096;23.226;2023-09-19T09:47:46;99139.22;;;26.33;52.17
56241;BME280;42155;53.096;23.226;2023-09-19T09:49:48;99130.97;;;26.28;52.38
56241;BME280;42155;53.096;23.226;2023-09-19T09:51:50;99144.22;;;26.25;52.15
56241;BME280;42155;53.096;23.226;2023-09-19T09:53:50;99140.69;;;26.07;52.52
56241;BME280;42155;53.096;23.226;2023-09-19T09:56:07;99155.44;;;26.11;52.58
56241;BME280;42155;53.096;23.226;2023-09-19T09:58:18;99153.03;;;26.15;52.91
56241;BME280;42155;53.096;23.226;2023-09-19T10:00:18;99155.38;;;26.23;52.46
56241;BME280;42155;53.096;23.226;2023-09-19T10:02:25;99151.00;;;26.22;52.57
56241;BME280;42155;53.096;23.226;2023-09-19T10:04:29;99165.00;;;26.14;53.04
56241;BME280;42155;53.096;23.226;2023-09-19T10:06:40;99172.97;;;26.04;53.08
56241;BME280;42155;53.096;23.226;2023-09-19T10:08:57;99156.69;;;25.92;53.37
56241;BME280;42155;53.096;23.226;2023-09-19T10:10:57;99165.34;;;25.89;53.01
56241;BME280;42155;53.096;23.226;2023-09-19T10:12:59;99158.88;;;25.78;53.26
56241;BME280;42155;53.096;23.226;2023-09-19T10:15:00;99162.75;;;25.82;52.98
56241;BME280;42155;53.096;23.226;2023-09-19T10:17:04;99171.22;;;25.98;53.61
56241;BME280;42155;53.096;23.226;2023-09-19T10:19:07;99160.53;;;26.08;52.69
56241;BME280;42155;53.096;23.226;2023-09-19T10:21:09;99144.63;;;26.00;52.25
56241;BME280;42155;53.096;23.226;2023-09-19T10:23:11;99171.75;;;26.11;52.29
56241;BME280;42155;53.096;23.226;2023-09-19T10:25:12;99157.91;;;26.13;52.90
56241;BME280;42155;53.096;23.226;2023-09-19T10:27:12;99148.59;;;26.09;52.52
56241;BME280;42155;53.096;23.226;2023-09-19T10:29:14;99157.41;;;26.16;51.84
56241;BME280;42155;53.096;23.226;2023-09-19T10:31:19;99146.84;;;26.03;52.44
56241;BME280;42155;53.096;23.226;2023-09-19T10:33:21;99143.19;;;25.97;52.35
56241;BME280;42155;53.096;23.226;2023-09-19T10:35:22;99160.38;;;26.14;52.15
56241;BME280;42155;53.096;23.226;2023-09-19T10:37:24;99157.53;;;26.21;52.14
56241;BME280;42155;53.096;23.226;2023-09-19T10:39:30;99152.72;;;26.28;52.24
56241;BME280;42155;53.096;23.226;2023-09-19T10:41:32;99150.00;;;26.28;52.47
56241;BME280;42155;53.096;23.226;2023-09-19T10:43:35;99156.53;;;26.27;52.52
56241;BME280;42155;53.096;23.226;2023-09-19T10:45:38;99159.34;;;26.32;52.31
56241;BME280;42155;53.096;23.226;2023-09-19T10:47:40;99163.03;;;26.26;52.59
56241;BME280;42155;53.096;23.226;2023-09-19T10:49:44;99155.28;;;26.18;52.56
56241;BME280;42155;53.096;23.226;2023-09-19T10:51:46;99140.91;;;26.06;51.71